createdAt,value
2023-04-18T00:00:50.320Z,53.19
2023-04-18T00:03:21.034Z,55.08
2023-04-18T00:05:49.962Z,57.25
2023-04-18T00:08:18.654Z,58.86
2023-04-18T00:10:47.448Z,59.68
2023-04-18T00:13:18.442Z,61.10
2023-04-18T00:15:47.233Z,69.84
2023-04-18T00:18:17.283Z,65.60
2023-04-18T00:20:46.385Z,56.79
2023-04-18T00:23:15.220Z,53.30
2023-04-18T00:25:44.004Z,55.14
2023-04-18T00:28:12.693Z,57.05
2023-04-18T00:30:41.470Z,58.89
2023-04-18T00:33:10.183Z,60.58
2023-04-18T00:35:38.903Z,68.71
2023-04-18T00:38:07.623Z,64.65
2023-04-18T00:40:36.911Z,56.33
2023-04-18T00:43:07.852Z,53.47
2023-04-18T00:45:37.072Z,55.44
2023-04-18T00:48:05.964Z,57.69
2023-04-18T00:50:37.091Z,58.85
2023-04-18T00:53:06.161Z,60.26
2023-04-18T00:55:35.715Z,68.88
2023-04-18T00:58:04.546Z,65.88
2023-04-18T01:00:33.204Z,57.48
2023-04-18T01:03:02.133Z,54.12
2023-04-18T01:05:31.191Z,55.63
2023-04-18T01:08:01.349Z,57.18
2023-04-18T01:10:31.108Z,59.47
2023-04-18T01:13:11.292Z,61.26
2023-04-18T01:15:41.780Z,71.06
2023-04-18T01:18:11.792Z,64.41
2023-04-18T01:20:45.779Z,56.42
2023-04-18T01:23:16.065Z,54.26
2023-04-18T01:25:46.506Z,56.37
2023-04-18T01:28:15.495Z,58.57
2023-04-18T01:30:44.287Z,60.12
2023-04-18T01:33:13.147Z,61.70
2023-04-18T01:35:41.840Z,71.20
2023-04-18T01:38:10.497Z,65.39
2023-04-18T01:40:39.165Z,57.38
2023-04-18T01:43:07.844Z,53.83
2023-04-18T01:45:36.506Z,55.62
2023-04-18T01:48:05.373Z,57.94
2023-04-18T01:50:34.067Z,59.74
2023-04-18T01:53:02.757Z,63.20
2023-04-18T01:55:31.464Z,68.37
2023-04-18T01:58:00.155Z,60.87
2023-04-18T02:00:28.893Z,54.09
2023-04-18T02:03:00.874Z,54.44
2023-04-18T02:05:29.580Z,57.08
2023-04-18T02:07:59.287Z,59.54
2023-04-18T02:10:28.032Z,61.26
2023-04-18T02:12:56.698Z,69.64
2023-04-18T02:15:25.517Z,65.21
2023-04-18T02:17:54.452Z,57.73
2023-04-18T02:20:23.182Z,54.57
2023-04-18T02:22:52.392Z,56.41
2023-04-18T02:25:23.706Z,58.84
2023-04-18T02:27:53.551Z,60.46
2023-04-18T02:30:23.163Z,68.74
2023-04-18T02:32:58.829Z,65.56
2023-04-18T02:35:27.670Z,57.42
2023-04-18T02:37:56.387Z,54.53
2023-04-18T02:40:25.017Z,56.74
2023-04-18T02:42:53.683Z,59.16
2023-04-18T02:45:22.326Z,61.07
2023-04-18T02:47:55.212Z,69.25
2023-04-18T02:50:25.274Z,65.43
2023-04-18T02:52:54.088Z,57.59
2023-04-18T02:55:22.721Z,54.71
2023-04-18T02:57:51.366Z,57.11
2023-04-18T03:00:20.317Z,59.38
2023-04-18T03:02:49.207Z,61.19
2023-04-18T03:05:18.001Z,69.46
2023-04-18T03:07:46.693Z,66.25
2023-04-18T03:10:15.411Z,59.31
2023-04-18T03:12:44.048Z,54.45
2023-04-18T03:15:12.767Z,55.85
2023-04-18T03:17:41.573Z,58.67
2023-04-18T03:20:10.658Z,60.97
2023-04-18T03:22:39.306Z,68.69
2023-04-18T03:25:08.432Z,65.50
2023-04-18T03:27:37.157Z,58.24
2023-04-18T03:30:06.646Z,54.77
2023-04-18T03:32:36.419Z,56.83
2023-04-18T03:35:05.711Z,59.32
2023-04-18T03:37:34.377Z,61.24
2023-04-18T03:40:05.396Z,69.99
2023-04-18T03:42:34.082Z,66.67
2023-04-18T03:45:02.952Z,59.37
2023-04-18T03:47:32.151Z,54.76
2023-04-18T03:50:00.931Z,56.42
2023-04-18T03:52:29.894Z,59.18
2023-04-18T03:54:58.699Z,60.92
2023-04-18T03:57:27.485Z,68.96
2023-04-18T03:59:56.202Z,65.63
2023-04-18T04:02:24.965Z,58.40
2023-04-18T04:04:54.002Z,54.76
2023-04-18T04:07:22.664Z,56.63
2023-04-18T04:09:51.368Z,59.18
2023-04-18T04:12:20.543Z,60.92
2023-04-18T04:14:49.335Z,69.35
2023-04-18T04:17:17.987Z,65.37
2023-04-18T04:19:46.733Z,58.21
2023-04-18T04:22:15.481Z,54.60
2023-04-18T04:24:44.424Z,56.71
2023-04-18T04:27:13.645Z,59.24
2023-04-18T04:29:43.800Z,61.29
2023-04-18T04:32:12.954Z,69.54
2023-04-18T04:34:41.914Z,65.08
2023-04-18T04:37:10.576Z,58.13
2023-04-18T04:39:39.369Z,54.36
2023-04-18T04:42:09.701Z,55.91
2023-04-18T04:44:38.465Z,58.90
2023-04-18T04:47:07.493Z,60.48
2023-04-18T04:49:36.161Z,68.68
2023-04-18T04:52:04.804Z,65.21
2023-04-18T04:54:33.513Z,57.24
2023-04-18T04:57:02.226Z,54.61
2023-04-18T04:59:31.548Z,56.97
2023-04-18T05:02:00.259Z,59.56
2023-04-18T05:04:29.117Z,61.48
2023-04-18T05:06:57.952Z,69.48
2023-04-18T05:09:26.807Z,65.07
2023-04-18T05:11:55.578Z,57.34
2023-04-18T05:14:25.233Z,54.45
2023-04-18T05:16:55.703Z,56.73
2023-04-18T05:19:24.422Z,59.11
2023-04-18T05:21:53.101Z,60.38
2023-04-18T05:24:21.788Z,68.97
2023-04-18T05:26:50.580Z,65.39
2023-04-18T05:29:19.411Z,58.73
2023-04-18T05:31:48.086Z,54.85
2023-04-18T05:34:16.934Z,56.77
2023-04-18T05:36:47.732Z,59.59
2023-04-18T05:39:17.138Z,61.63
2023-04-18T05:41:45.820Z,70.10
2023-04-18T05:44:16.477Z,66.30
2023-04-18T05:46:45.820Z,60.01
2023-04-18T05:49:14.691Z,54.98
2023-04-18T05:51:43.363Z,56.39
2023-04-18T05:54:12.841Z,58.95
2023-04-18T05:56:41.723Z,60.92
2023-04-18T05:59:10.838Z,69.24
2023-04-18T06:01:39.905Z,65.57
2023-04-18T06:04:08.739Z,58.54
2023-04-18T06:06:37.706Z,55.49
2023-04-18T06:09:06.388Z,57.77
2023-04-18T06:11:35.757Z,59.97
2023-04-18T06:14:04.443Z,61.64
2023-04-18T06:16:33.232Z,70.12
2023-04-18T06:19:03.246Z,65.19
2023-04-18T06:21:32.126Z,58.52
2023-04-18T06:24:01.702Z,54.87
2023-04-18T06:26:32.108Z,56.29
2023-04-18T06:29:01.174Z,59.31
2023-04-18T06:31:29.885Z,60.69
2023-04-18T06:33:58.625Z,68.55
2023-04-18T06:36:27.501Z,63.34
2023-04-18T06:38:56.155Z,55.55
2023-04-18T06:41:24.853Z,54.45
2023-04-18T06:44:03.389Z,56.53
2023-04-18T06:46:33.229Z,58.84
2023-04-18T06:49:02.630Z,63.21
2023-04-18T06:51:31.691Z,66.27
2023-04-18T06:54:00.423Z,58.45
2023-04-18T06:56:29.788Z,54.29
2023-04-18T06:58:58.467Z,55.80
2023-04-18T07:01:27.212Z,58.27
2023-04-18T07:03:56.371Z,60.49
2023-04-18T07:06:26.193Z,68.27
2023-04-18T07:08:59.982Z,64.77
2023-04-18T07:11:29.292Z,57.15
2023-04-18T07:13:57.908Z,53.82
2023-04-18T07:16:26.780Z,55.87
2023-04-18T07:18:55.506Z,57.55
2023-04-18T07:21:24.174Z,59.78
2023-04-18T07:23:52.842Z,65.13
2023-04-18T07:26:21.582Z,62.16
2023-04-18T07:28:50.508Z,54.87
2023-04-18T07:31:19.611Z,53.41
2023-04-18T07:33:48.416Z,54.92
2023-04-18T07:36:18.125Z,56.99
2023-04-18T07:38:47.259Z,58.60
2023-04-18T07:41:15.983Z,60.45
2023-04-18T07:43:44.978Z,67.90
2023-04-18T07:46:14.035Z,64.00
2023-04-18T07:48:42.907Z,55.43
2023-04-18T07:51:11.880Z,52.94
2023-04-18T07:53:41.262Z,55.57
2023-04-18T07:56:12.517Z,57.38
2023-04-18T07:58:41.320Z,58.93
2023-04-18T08:01:13.527Z,60.14
2023-04-18T08:03:42.440Z,68.16
2023-04-18T08:06:11.250Z,61.91
2023-04-18T08:08:39.966Z,53.69
2023-04-18T08:11:08.658Z,53.55
2023-04-18T08:13:37.361Z,55.02
2023-04-18T08:16:06.345Z,56.77
2023-04-18T08:18:35.782Z,58.49
2023-04-18T08:21:04.859Z,59.30
2023-04-18T08:23:33.534Z,66.15
2023-04-18T08:26:02.168Z,63.11
2023-04-18T08:28:30.848Z,54.14
2023-04-18T08:30:59.624Z,52.47
2023-04-18T08:33:29.129Z,53.50
2023-04-18T08:35:57.893Z,56.06
2023-04-18T08:38:26.531Z,58.74
2023-04-18T08:40:55.307Z,58.12
2023-04-18T08:43:25.257Z,59.93
2023-04-18T08:46:00.350Z,65.71
2023-04-18T08:48:29.294Z,61.33
2023-04-18T08:50:59.222Z,52.27
2023-04-18T08:53:28.081Z,52.07
2023-04-18T08:55:59.512Z,53.71
2023-04-18T08:58:32.244Z,55.02
2023-04-18T09:01:01.043Z,59.18
2023-04-18T09:03:41.171Z,58.50
2023-04-18T09:06:16.282Z,57.94
2023-04-18T09:08:59.275Z,58.94
2023-04-18T09:11:30.122Z,65.30
2023-04-18T09:13:59.124Z,60.78
2023-04-18T09:16:28.412Z,52.02
2023-04-18T09:19:18.623Z,51.38
2023-04-18T09:21:58.262Z,53.72
2023-04-18T09:24:30.545Z,56.65
2023-04-18T09:27:00.132Z,58.85
2023-04-18T09:29:47.171Z,58.47
2023-04-18T09:32:25.100Z,58.51
2023-04-18T09:34:58.084Z,59.28
2023-04-18T09:37:28.178Z,64.37
2023-04-18T09:39:56.814Z,60.70
2023-04-18T09:42:28.192Z,53.57
2023-04-18T09:45:08.313Z,53.07
2023-04-18T09:47:37.498Z,52.87
2023-04-18T09:50:08.792Z,54.26
2023-04-18T09:52:40.505Z,55.48
2023-04-18T09:55:11.695Z,56.87
2023-04-18T09:57:44.281Z,59.04
2023-04-18T10:00:20.386Z,58.77
2023-04-18T10:02:53.183Z,58.21
2023-04-18T10:05:30.900Z,59.92
2023-04-18T10:07:59.715Z,65.07
2023-04-18T10:10:28.519Z,59.28
2023-04-18T10:12:59.747Z,52.08
2023-04-18T10:15:30.589Z,51.48
2023-04-18T10:18:11.318Z,53.27
2023-04-18T10:20:41.671Z,54.43
2023-04-18T10:23:37.782Z,56.76
2023-04-18T10:26:12.459Z,56.20
2023-04-18T10:28:58.504Z,58.00
2023-04-18T10:31:29.044Z,59.57
2023-04-18T10:36:31.131Z,58.35
2023-04-18T10:39:20.982Z,58.86
2023-04-18T10:41:51.730Z,60.09
2023-04-18T10:44:23.027Z,59.37
2023-04-18T10:46:52.114Z,61.08
2023-04-18T10:49:30.302Z,66.21
2023-04-18T10:52:02.786Z,59.37
2023-04-18T10:54:50.917Z,52.55
2023-04-18T10:57:20.070Z,52.76
2023-04-18T10:59:50.798Z,53.85
2023-04-18T11:02:32.270Z,54.79
2023-04-18T11:05:04.610Z,57.34
2023-04-18T11:07:34.091Z,57.99
2023-04-18T11:10:07.234Z,57.74
2023-04-18T11:12:38.301Z,58.32
2023-04-18T11:15:21.404Z,58.91
2023-04-18T11:18:04.713Z,58.96
2023-04-18T11:20:45.985Z,59.57
2023-04-18T11:23:21.467Z,59.78
2023-04-18T11:25:56.257Z,59.93
2023-04-18T11:28:25.219Z,59.91
2023-04-18T11:30:58.619Z,60.41
2023-04-18T11:33:28.816Z,61.06
2023-04-18T11:36:00.675Z,60.43
2023-04-18T11:38:30.938Z,64.48
2023-04-18T11:41:02.687Z,64.44
2023-04-18T11:43:31.419Z,54.68
2023-04-18T11:46:00.319Z,51.72
2023-04-18T11:48:36.729Z,52.80
2023-04-18T11:51:06.692Z,53.72
2023-04-18T11:53:36.791Z,55.45
2023-04-18T11:56:06.372Z,56.03
2023-04-18T11:58:36.631Z,56.68
2023-04-18T12:01:22.692Z,57.66
2023-04-18T12:04:06.812Z,58.14
2023-04-18T12:06:53.658Z,58.05
2023-04-18T12:09:25.068Z,58.43
2023-04-18T12:12:01.620Z,58.98
2023-04-18T12:14:30.651Z,59.39
2023-04-18T12:16:59.339Z,59.59
2023-04-18T12:19:30.079Z,59.53
2023-04-18T12:22:05.167Z,59.72
2023-04-18T12:24:34.490Z,59.53
2023-04-18T12:27:03.457Z,60.25
2023-04-18T12:29:32.139Z,60.04
2023-04-18T12:32:00.828Z,60.02
2023-04-18T12:34:29.611Z,60.44
2023-04-18T12:36:58.309Z,60.19
2023-04-18T12:39:27.075Z,59.89
2023-04-18T12:41:55.811Z,60.61
2023-04-18T12:44:24.830Z,60.12
2023-04-18T12:46:53.642Z,59.98
2023-04-18T12:49:22.733Z,60.34
2023-04-18T12:51:51.394Z,59.92
2023-04-18T12:54:20.731Z,60.31
2023-04-18T12:56:49.450Z,61.01
2023-04-18T12:59:18.140Z,60.36
2023-04-18T13:01:46.849Z,60.35
2023-04-18T13:04:16.074Z,60.62
2023-04-18T13:07:20.672Z,60.00
2023-04-18T13:09:49.408Z,59.92
2023-04-18T13:12:18.063Z,60.33
2023-04-18T13:14:46.717Z,60.48
2023-04-18T13:17:15.684Z,60.31
2023-04-18T13:19:44.408Z,60.79
2023-04-18T13:22:13.223Z,60.53
2023-04-18T13:24:41.963Z,61.02
2023-04-18T13:27:10.607Z,60.84
2023-04-18T13:29:41.283Z,60.55
2023-04-18T13:32:10.361Z,60.10
2023-04-18T13:34:42.564Z,60.42
2023-04-18T13:37:11.517Z,59.91
2023-04-18T13:39:40.626Z,60.08
2023-04-18T13:42:10.029Z,59.70
2023-04-18T13:44:38.865Z,59.60
2023-04-18T13:47:08.152Z,59.71
2023-04-18T13:49:37.173Z,59.27
2023-04-18T13:52:05.943Z,59.95
2023-04-18T13:54:34.670Z,59.67
2023-04-18T13:57:03.823Z,59.25
2023-04-18T13:59:32.642Z,58.11
2023-04-18T14:02:01.414Z,58.79
2023-04-18T14:04:31.942Z,58.22
2023-04-18T14:07:01.698Z,57.60
2023-04-18T14:09:30.416Z,57.36
2023-04-18T14:11:59.276Z,56.82
2023-04-18T14:14:28.086Z,57.64
2023-04-18T14:16:57.373Z,57.90
2023-04-18T14:19:27.365Z,57.50
2023-04-18T14:21:56.023Z,57.10
2023-04-18T14:24:24.688Z,57.94
2023-04-18T14:26:53.420Z,57.78
2023-04-18T14:29:22.135Z,57.63
2023-04-18T14:31:50.840Z,58.10
2023-04-18T14:34:19.630Z,57.22
2023-04-18T14:36:48.282Z,57.47
2023-04-18T14:39:16.949Z,57.89
2023-04-18T14:41:45.959Z,57.65
2023-04-18T14:44:14.766Z,57.78
2023-04-18T14:46:43.494Z,58.05
2023-04-18T14:49:12.402Z,57.83
2023-04-18T14:51:41.239Z,58.08
2023-04-18T14:54:09.989Z,58.22
2023-04-18T14:56:38.698Z,58.28
2023-04-18T14:59:07.412Z,58.53
2023-04-18T15:01:36.242Z,58.25
2023-04-18T15:04:05.963Z,58.67
2023-04-18T15:06:35.073Z,58.96
2023-04-18T15:09:03.804Z,58.76
2023-04-18T15:11:32.539Z,58.96
2023-04-18T15:14:01.253Z,59.09
2023-04-18T15:16:31.126Z,59.58
2023-04-18T15:19:00.468Z,59.63
2023-04-18T15:21:29.243Z,59.41
2023-04-18T15:23:59.101Z,59.53
2023-04-18T15:26:27.872Z,59.25
2023-04-18T15:28:56.633Z,59.35
2023-04-18T15:31:26.175Z,59.43
2023-04-18T15:33:55.209Z,58.83
2023-04-18T15:36:24.063Z,58.48
2023-04-18T15:38:52.734Z,58.93
2023-04-18T15:41:21.421Z,59.12
2023-04-18T15:43:52.157Z,58.51
2023-04-18T15:46:20.914Z,58.52
2023-04-18T15:48:49.705Z,58.95
2023-04-18T15:51:18.436Z,58.62
2023-04-18T15:53:47.162Z,59.05
2023-04-18T15:56:15.905Z,58.82
2023-04-18T15:58:44.570Z,58.87
2023-04-18T16:01:16.011Z,58.59
2023-04-18T16:03:44.829Z,58.24
2023-04-18T16:06:15.412Z,58.27
2023-04-18T16:08:44.099Z,58.24
2023-04-18T16:11:12.758Z,58.37
2023-04-18T16:13:41.412Z,58.63
2023-04-18T16:16:10.261Z,58.55
2023-04-18T16:18:39.401Z,58.52
2023-04-18T16:21:08.075Z,58.98
2023-04-18T16:23:37.265Z,58.73
2023-04-18T16:26:06.303Z,58.97
2023-04-18T16:28:37.727Z,58.96
2023-04-18T16:31:06.591Z,58.80
2023-04-18T16:33:35.411Z,59.44
2023-04-18T16:36:05.090Z,59.20
2023-04-18T16:38:33.810Z,59.50
2023-04-18T16:41:02.608Z,59.20
2023-04-18T16:43:31.343Z,59.18
2023-04-18T16:46:00.587Z,59.20
2023-04-18T16:48:29.758Z,59.06
2023-04-18T16:50:58.518Z,59.18
2023-04-18T16:53:27.246Z,59.46
2023-04-18T16:55:56.071Z,59.62
2023-04-18T16:58:24.781Z,59.67
2023-04-18T17:00:53.527Z,59.84
2023-04-18T17:03:22.335Z,60.01
2023-04-18T17:05:51.186Z,60.02
2023-04-18T17:08:19.879Z,60.10
2023-04-18T17:10:52.059Z,60.35
2023-04-18T17:13:26.716Z,60.46
2023-04-18T17:15:55.462Z,60.78
2023-04-18T17:18:24.598Z,61.05
2023-04-18T17:20:53.372Z,61.18
2023-04-18T17:23:22.908Z,61.32
2023-04-18T17:25:51.705Z,61.29
2023-04-18T17:28:21.287Z,61.44
2023-04-18T17:30:50.790Z,61.69
2023-04-18T17:33:19.482Z,61.74
2023-04-18T17:35:48.319Z,61.90
2023-04-18T17:38:16.969Z,62.13
2023-04-18T17:40:46.068Z,62.26
2023-04-18T17:43:14.705Z,69.77
2023-04-18T17:45:44.100Z,65.77
2023-04-18T17:48:12.856Z,55.72
2023-04-18T17:50:41.710Z,52.51
2023-04-18T17:53:12.397Z,53.30
2023-04-18T17:55:41.390Z,54.57
2023-04-18T17:58:10.033Z,55.58
2023-04-18T18:00:38.799Z,56.58
2023-04-18T18:03:13.539Z,57.62
2023-04-18T18:05:46.190Z,58.23
2023-04-18T18:08:15.131Z,58.75
2023-04-18T18:10:46.557Z,59.47
2023-04-18T18:13:15.826Z,60.07
2023-04-18T18:15:44.552Z,61.19
2023-04-18T18:18:13.233Z,61.56
2023-04-18T18:20:43.317Z,62.01
2023-04-18T18:23:12.084Z,69.38
2023-04-18T18:25:41.651Z,65.21
2023-04-18T18:28:10.310Z,55.50
2023-04-18T18:30:38.976Z,52.20
2023-04-18T18:33:07.774Z,52.83
2023-04-18T18:35:36.717Z,54.31
2023-04-18T18:38:05.380Z,55.50
2023-04-18T18:40:34.402Z,56.52
2023-04-18T18:43:03.178Z,57.27
2023-04-18T18:45:31.909Z,58.16
2023-04-18T18:48:00.783Z,58.64
2023-04-18T18:50:29.589Z,58.89
2023-04-18T18:52:58.312Z,59.48
2023-04-18T18:55:27.454Z,59.83
2023-04-18T18:57:56.117Z,60.45
2023-04-18T19:00:25.051Z,60.72
2023-04-18T19:02:53.871Z,61.03
2023-04-18T19:05:22.761Z,61.60
2023-04-18T19:07:51.536Z,68.56
2023-04-18T19:10:21.067Z,64.91
2023-04-18T19:12:49.729Z,54.80
2023-04-18T19:15:18.488Z,51.85
2023-04-18T19:17:47.249Z,52.79
2023-04-18T19:20:15.971Z,54.05
2023-04-18T19:22:44.622Z,55.49
2023-04-18T19:25:13.278Z,56.15
2023-04-18T19:27:42.962Z,56.95
2023-04-18T19:30:12.095Z,57.61
2023-04-18T19:32:40.886Z,58.31
2023-04-18T19:35:13.130Z,58.55
2023-04-18T19:37:42.821Z,59.16
2023-04-18T19:40:11.939Z,59.58
2023-04-18T19:42:41.060Z,60.09
2023-04-18T19:45:12.112Z,60.57
2023-04-18T19:47:43.937Z,61.13
2023-04-18T19:50:12.673Z,67.90
2023-04-18T19:52:41.407Z,65.70
2023-04-18T19:55:10.320Z,56.13
2023-04-18T19:57:41.416Z,52.30
2023-04-18T20:00:12.610Z,53.11
2023-04-18T20:02:41.610Z,54.64
2023-04-18T20:05:10.796Z,56.01
2023-04-18T20:07:39.840Z,56.98
2023-04-18T20:10:09.053Z,57.68
2023-04-18T20:12:37.825Z,58.54
2023-04-18T20:15:07.279Z,59.21
2023-04-18T20:17:36.051Z,59.73
2023-04-18T20:20:08.105Z,60.29
2023-04-18T20:22:37.944Z,61.02
2023-04-18T20:25:07.020Z,69.37
2023-04-18T20:27:35.794Z,65.48
2023-04-18T20:30:05.215Z,56.07
2023-04-18T20:32:34.612Z,52.62
2023-04-18T20:35:04.353Z,53.37
2023-04-18T20:37:36.690Z,54.95
2023-04-18T20:40:10.758Z,56.37
2023-04-18T20:42:39.566Z,57.18
2023-04-18T20:45:11.688Z,58.47
2023-04-18T20:47:42.103Z,59.04
2023-04-18T20:50:11.035Z,60.02
2023-04-18T20:52:42.803Z,60.87
2023-04-18T20:55:11.713Z,61.79
2023-04-18T20:57:40.359Z,70.15
2023-04-18T21:00:10.538Z,65.16
2023-04-18T21:02:41.080Z,56.57
2023-04-18T21:05:10.569Z,52.59
2023-04-18T21:07:39.210Z,53.59
2023-04-18T21:10:08.253Z,55.19
2023-04-18T21:12:36.919Z,56.47
2023-04-18T21:15:06.154Z,57.50
2023-04-18T21:17:34.866Z,58.27
2023-04-18T21:20:03.725Z,59.16
2023-04-18T21:22:32.398Z,60.09
2023-04-18T21:25:01.107Z,60.84
2023-04-18T21:27:30.255Z,68.25
2023-04-18T21:29:58.908Z,64.69
2023-04-18T21:32:27.689Z,55.28
2023-04-18T21:34:57.770Z,52.43
2023-04-18T21:37:26.507Z,53.64
2023-04-18T21:39:55.178Z,55.20
2023-04-18T21:42:23.872Z,56.62
2023-04-18T21:44:54.796Z,57.56
2023-04-18T21:47:23.545Z,58.69
2023-04-18T21:49:52.222Z,59.61
2023-04-18T21:52:21.086Z,60.24
2023-04-18T21:54:49.795Z,60.66
2023-04-18T21:57:18.536Z,69.05
2023-04-18T21:59:47.234Z,66.53
2023-04-18T22:02:16.115Z,57.24
2023-04-18T22:04:44.963Z,52.39
2023-04-18T22:07:15.600Z,53.45
2023-04-18T22:09:45.991Z,54.89
2023-04-18T22:12:15.487Z,56.37
2023-04-18T22:14:48.442Z,56.24
2023-04-18T22:17:17.329Z,56.96
2023-04-18T22:19:47.605Z,56.90
2023-04-18T22:22:16.560Z,57.42
2023-04-18T22:24:47.344Z,57.90
2023-04-18T22:27:16.513Z,58.38
2023-04-18T22:29:45.159Z,60.52
2023-04-18T22:32:13.801Z,60.57
2023-04-18T22:34:42.439Z,68.04
2023-04-18T22:37:11.091Z,66.02
2023-04-18T22:39:39.785Z,58.50
2023-04-18T22:42:08.480Z,51.80
2023-04-18T22:44:37.156Z,52.18
2023-04-18T22:47:06.383Z,53.41
2023-04-18T22:49:35.714Z,54.24
2023-04-18T22:52:05.003Z,55.17
2023-04-18T22:54:38.433Z,55.81
2023-04-18T22:57:07.984Z,57.19
2023-04-18T22:59:36.808Z,55.93
2023-04-18T23:02:05.692Z,55.84
2023-04-18T23:04:34.677Z,55.05
2023-04-18T23:07:03.654Z,55.58
2023-04-18T23:09:33.123Z,57.39
2023-04-18T23:12:04.718Z,55.35
2023-04-18T23:14:34.563Z,55.28
2023-04-18T23:17:03.238Z,57.91
2023-04-18T23:19:31.908Z,57.95
2023-04-18T23:22:00.592Z,57.10
2023-04-18T23:24:30.814Z,56.88
2023-04-18T23:26:59.480Z,57.50
2023-04-18T23:29:29.083Z,56.73
2023-04-18T23:31:57.828Z,57.90
2023-04-18T23:34:26.473Z,57.12
2023-04-18T23:36:55.130Z,57.48
2023-04-18T23:39:26.272Z,57.32
2023-04-18T23:41:54.957Z,57.79
2023-04-18T23:44:23.742Z,57.81
2023-04-18T23:46:52.584Z,57.31
2023-04-18T23:49:21.450Z,57.03
2023-04-18T23:51:50.289Z,57.61
2023-04-18T23:54:18.947Z,57.99
2023-04-18T23:56:47.646Z,58.18
2023-04-18T23:59:16.419Z,59.35
